Time;durP1;ratioP1;P1;durP2;ratioP2;P2;SDS_P1;SDS_P2;PMS_P1;PMS_P2;Temp;Humidity;BMP_temperature;BMP_pressure;BME280_temperature;BME280_humidity;BME280_pressure;Samples;Min_cycle;Max_cycle;Signal;HPM_P1;HPM_P2
2023/09/03 00:00:42;;;;;;;6.07;3.10;;;;;;;;;;5086333;28;20518;-73
2023/09/03 00:03:08;;;;;;;6.65;3.28;;;;;;;;;;5089689;28;20544;-73
2023/09/03 00:05:35;;;;;;;3.60;2.83;;;;;;;;;;5088754;28;20020;-73
2023/09/03 00:08:01;;;;;;;4.22;2.78;;;;;;;;;;5089442;28;20067;-73
2023/09/03 00:10:29;;;;;;;4.22;2.50;;;;;;;;;;5086895;28;20031;-74
2023/09/03 00:12:56;;;;;;;2.88;2.45;;;;;;;;;;5088333;28;20012;-73
2023/09/03 00:15:23;;;;;;;3.00;2.50;;;;;;;;;;5099041;28;20036;-73
2023/09/03 00:17:50;;;;;;;2.60;2.38;;;;;;;;;;5107256;28;20102;-72
2023/09/03 00:20:17;;;;;;;4.43;2.80;;;;;;;;;;5088524;28;20035;-73
2023/09/03 00:22:43;;;;;;;4.15;2.30;;;;;;;;;;5109171;28;20494;-73
2023/09/03 00:25:09;;;;;;;2.80;2.28;;;;;;;;;;5106017;28;20035;-73
2023/09/03 00:27:35;;;;;;;4.45;2.40;;;;;;;;;;5107643;28;20031;-73
2023/09/03 00:30:01;;;;;;;4.07;2.42;;;;;;;;;;5101928;28;20529;-73
2023/09/03 00:32:28;;;;;;;3.58;2.83;;;;;;;;;;5108063;28;20027;-73
2023/09/03 00:34:54;;;;;;;3.83;2.15;;;;;;;;;;5108238;28;20028;-73
2023/09/03 00:37:20;;;;;;;4.25;2.35;;;;;;;;;;5109349;28;20082;-76
2023/09/03 00:39:46;;;;;;;5.70;2.65;;;;;;;;;;5087295;28;20038;-73
2023/09/03 00:42:13;;;;;;;2.60;2.40;;;;;;;;;;5105013;28;20028;-73
2023/09/03 00:44:39;;;;;;;2.90;2.50;;;;;;;;;;5102868;28;20454;-73
2023/09/03 00:47:05;;;;;;;3.03;2.50;;;;;;;;;;5091736;28;20029;-75
2023/09/03 00:49:31;;;;;;;3.33;2.20;;;;;;;;;;5106902;28;20089;-73
2023/09/03 00:51:58;;;;;;;4.13;2.80;;;;;;;;;;5101647;28;20016;-74
2023/09/03 00:54:24;;;;;;;2.80;2.33;;;;;;;;;;5107770;28;20028;-73
2023/09/03 00:56:51;;;;;;;4.47;2.67;;;;;;;;;;5111326;28;20172;-74
2023/09/03 00:59:19;;;;;;;3.97;2.72;;;;;;;;;;5094779;28;20024;-73
2023/09/03 01:01:49;;;;;;;4.22;2.42;;;;;;;;;;5088190;28;20024;-74
2023/09/03 01:04:15;;;;;;;5.40;2.45;;;;;;;;;;5102240;28;20032;-75
2023/09/03 01:06:41;;;;;;;3.90;2.80;;;;;;;;;;5089195;28;20031;-73
2023/09/03 01:09:07;;;;;;;3.58;2.80;;;;;;;;;;5107247;28;20046;-72
2023/09/03 01:11:42;;;;;;;3.85;2.88;;;;;;;;;;5110219;28;20035;-73
2023/09/03 01:14:08;;;;;;;3.83;3.17;;;;;;;;;;5109037;28;20028;-73
2023/09/03 01:16:47;;;;;;;3.75;2.70;;;;;;;;;;5109218;28;20244;-74
2023/09/03 01:19:45;;;;;;;3.88;2.60;;;;;;;;;;5107160;28;20460;-73
2023/09/03 01:22:21;;;;;;;3.92;2.85;;;;;;;;;;5107076;28;20467;-74
2023/09/03 01:24:58;;;;;;;3.03;2.67;;;;;;;;;;5109562;28;20031;-74
2023/09/03 01:27:42;;;;;;;3.88;2.97;;;;;;;;;;5087948;28;20097;-74
2023/09/03 01:30:08;;;;;;;3.67;2.65;;;;;;;;;;5106026;28;20067;-74
2023/09/03 01:32:36;;;;;;;4.15;2.70;;;;;;;;;;5102783;28;20038;-75
2023/09/03 01:35:03;;;;;;;3.70;2.40;;;;;;;;;;5105766;28;20024;-75
2023/09/03 01:37:31;;;;;;;3.30;2.47;;;;;;;;;;5107175;28;20026;-74
2023/09/03 01:39:58;;;;;;;3.67;2.80;;;;;;;;;;5088914;28;20077;-74
2023/09/03 01:42:24;;;;;;;4.95;3.15;;;;;;;;;;5091098;28;20028;-74
2023/09/03 01:44:52;;;;;;;3.65;2.50;;;;;;;;;;5108127;28;20528;-74
2023/09/03 01:47:24;;;;;;;4.88;2.85;;;;;;;;;;5104874;28;20380;-75
2023/09/03 01:49:59;;;;;;;2.42;2.22;;;;;;;;;;5102060;28;20016;-73
2023/09/03 01:52:29;;;;;;;3.88;2.45;;;;;;;;;;5102595;28;20084;-74
2023/09/03 01:54:57;;;;;;;5.80;2.92;;;;;;;;;;5106043;28;20028;-74
2023/09/03 01:57:29;;;;;;;3.25;2.95;;;;;;;;;;5097528;28;20028;-74
2023/09/03 02:00:06;;;;;;;4.40;3.65;;;;;;;;;;5107460;28;20023;-75
2023/09/03 02:02:33;;;;;;;3.58;2.55;;;;;;;;;;5081293;28;20031;-73
2023/09/03 02:05:00;;;;;;;4.38;2.83;;;;;;;;;;5086086;28;20043;-74
2023/09/03 02:07:26;;;;;;;3.78;2.83;;;;;;;;;;5105131;28;20026;-74
2023/09/03 02:09:52;;;;;;;5.35;2.60;;;;;;;;;;5110284;28;20058;-74
2023/09/03 02:12:23;;;;;;;3.60;3.17;;;;;;;;;;5111097;28;20031;-74
2023/09/03 02:14:50;;;;;;;3.92;2.70;;;;;;;;;;5106859;28;20040;-73
2023/09/03 02:17:24;;;;;;;5.03;2.97;;;;;;;;;;5108823;28;20036;-74
2023/09/03 02:19:50;;;;;;;5.63;2.95;;;;;;;;;;5106073;28;20474;-74
2023/09/03 02:22:17;;;;;;;5.90;3.42;;;;;;;;;;5103503;28;20387;-75
2023/09/03 02:24:43;;;;;;;3.75;2.90;;;;;;;;;;5093202;28;20032;-74
2023/09/03 02:27:10;;;;;;;3.72;2.85;;;;;;;;;;5111314;28;20160;-75
2023/09/03 02:29:36;;;;;;;7.88;3.20;;;;;;;;;;5090345;28;20040;-74
2023/09/03 02:32:02;;;;;;;3.88;2.90;;;;;;;;;;5112528;27;20051;-74
2023/09/03 02:34:28;;;;;;;4.47;2.80;;;;;;;;;;5102528;28;20020;-75
2023/09/03 02:36:55;;;;;;;5.03;3.17;;;;;;;;;;5076941;28;20373;-74
2023/09/03 02:39:21;;;;;;;6.03;3.15;;;;;;;;;;5111833;28;20016;-75
2023/09/03 02:41:47;;;;;;;6.00;2.80;;;;;;;;;;5098137;28;20020;-75
2023/09/03 02:44:13;;;;;;;4.93;2.80;;;;;;;;;;5091739;28;20546;-75
2023/09/03 02:46:39;;;;;;;3.38;2.50;;;;;;;;;;5110232;28;20035;-74
2023/09/03 02:49:09;;;;;;;5.70;2.80;;;;;;;;;;5084771;28;20030;-74
2023/09/03 02:51:36;;;;;;;4.80;2.92;;;;;;;;;;5107295;28;20356;-74
2023/09/03 02:54:02;;;;;;;5.47;3.50;;;;;;;;;;5106963;28;20016;-74
2023/09/03 02:56:29;;;;;;;3.63;2.90;;;;;;;;;;5108486;28;20061;-74
2023/09/03 02:58:55;;;;;;;4.28;2.85;;;;;;;;;;5104324;28;20030;-73
2023/09/03 03:01:21;;;;;;;4.20;3.00;;;;;;;;;;5109604;27;20036;-73
2023/09/03 03:03:48;;;;;;;3.53;3.05;;;;;;;;;;5104630;28;20475;-73
2023/09/03 03:06:15;;;;;;;4.80;2.78;;;;;;;;;;5108616;28;20514;-73
2023/09/03 03:08:41;;;;;;;5.55;2.85;;;;;;;;;;5110095;28;20035;-75
2023/09/03 03:11:08;;;;;;;4.18;2.65;;;;;;;;;;5105753;28;20020;-74
2023/09/03 03:13:35;;;;;;;4.88;3.00;;;;;;;;;;5115260;27;20038;-74
2023/09/03 03:16:24;;;;;;;4.72;3.05;;;;;;;;;;5082247;28;20059;-74
2023/09/03 03:18:52;;;;;;;4.28;3.08;;;;;;;;;;5079227;28;20078;-75
2023/09/03 03:21:19;;;;;;;6.13;3.38;;;;;;;;;;5089000;28;20051;-75
2023/09/03 03:23:54;;;;;;;3.97;3.25;;;;;;;;;;5084239;28;21664;-74
2023/09/03 03:26:20;;;;;;;4.38;3.10;;;;;;;;;;5088318;28;20038;-74
2023/09/03 03:28:46;;;;;;;7.13;3.35;;;;;;;;;;5082144;28;20059;-75
2023/09/03 03:31:14;;;;;;;4.80;3.10;;;;;;;;;;5080472;28;20558;-75
2023/09/03 03:33:41;;;;;;;7.75;3.72;;;;;;;;;;5089395;28;20040;-74
2023/09/03 03:36:07;;;;;;;3.60;3.17;;;;;;;;;;5106209;28;20369;-74
2023/09/03 03:38:33;;;;;;;6.10;3.03;;;;;;;;;;5082016;28;20035;-74
2023/09/03 03:41:09;;;;;;;4.30;2.83;;;;;;;;;;5089909;28;20032;-74
2023/09/03 03:43:36;;;;;;;4.35;3.25;;;;;;;;;;5088538;28;20020;-74
2023/09/03 03:46:02;;;;;;;4.57;3.05;;;;;;;;;;5087169;28;20035;-74
2023/09/03 03:48:28;;;;;;;4.78;2.97;;;;;;;;;;5089367;28;20027;-74
2023/09/03 03:50:55;;;;;;;4.65;2.90;;;;;;;;;;5089896;28;20123;-74
2023/09/03 03:53:21;;;;;;;4.68;2.85;;;;;;;;;;5087434;28;20020;-74
2023/09/03 03:55:47;;;;;;;3.47;2.78;;;;;;;;;;5082868;28;20020;-74
2023/09/03 03:58:14;;;;;;;4.82;3.15;;;;;;;;;;5090337;28;20467;-74
2023/09/03 04:00:40;;;;;;;4.18;3.78;;;;;;;;;;5093353;28;20025;-74
2023/09/03 04:03:06;;;;;;;4.47;3.17;;;;;;;;;;5104703;28;20030;-75
2023/09/03 04:05:33;;;;;;;5.63;3.00;;;;;;;;;;5092137;28;20111;-74
2023/09/03 04:07:59;;;;;;;3.15;2.78;;;;;;;;;;5088510;28;20066;-74
2023/09/03 04:10:25;;;;;;;4.78;3.10;;;;;;;;;;5083895;28;20024;-75
2023/09/03 04:12:51;;;;;;;4.07;3.15;;;;;;;;;;5086248;28;20024;-75
2023/09/03 04:15:17;;;;;;;4.63;3.55;;;;;;;;;;5096761;28;20061;-74
2023/09/03 04:17:44;;;;;;;5.72;3.47;;;;;;;;;;5105046;28;20444;-74
2023/09/03 04:20:11;;;;;;;4.35;3.45;;;;;;;;;;5106227;28;20114;-75
2023/09/03 04:22:38;;;;;;;5.50;3.47;;;;;;;;;;5105210;28;20077;-75
2023/09/03 04:25:05;;;;;;;5.80;3.30;;;;;;;;;;5104708;28;20531;-74
2023/09/03 04:27:31;;;;;;;6.22;3.45;;;;;;;;;;5109374;28;20032;-74
2023/09/03 04:29:58;;;;;;;4.82;3.15;;;;;;;;;;5108209;28;20027;-74
2023/09/03 04:32:24;;;;;;;4.75;2.95;;;;;;;;;;5091224;28;20672;-74
2023/09/03 04:34:51;;;;;;;4.28;2.88;;;;;;;;;;5102815;28;20047;-74
2023/09/03 04:37:17;;;;;;;4.80;3.35;;;;;;;;;;5093791;28;20081;-74
2023/09/03 04:39:44;;;;;;;4.80;3.40;;;;;;;;;;5105674;28;20043;-75
2023/09/03 04:42:10;;;;;;;4.88;3.25;;;;;;;;;;5109858;28;20061;-74
2023/09/03 04:44:39;;;;;;;5.65;3.42;;;;;;;;;;5086281;28;20024;-73
2023/09/03 04:47:08;;;;;;;4.68;3.42;;;;;;;;;;5106581;28;20027;-73
2023/09/03 04:49:34;;;;;;;5.80;3.78;;;;;;;;;;5106397;28;20491;-74
2023/09/03 04:52:00;;;;;;;5.43;3.40;;;;;;;;;;5110675;27;20034;-74
2023/09/03 04:54:26;;;;;;;4.40;3.53;;;;;;;;;;5100476;28;20026;-74
2023/09/03 04:56:53;;;;;;;6.07;3.20;;;;;;;;;;5104565;28;20027;-74
2023/09/03 04:59:19;;;;;;;3.83;3.00;;;;;;;;;;5093672;28;20028;-74
2023/09/03 05:01:46;;;;;;;5.30;3.10;;;;;;;;;;5093138;28;20032;-74
2023/09/03 05:04:14;;;;;;;3.70;3.30;;;;;;;;;;5085274;28;20028;-74
2023/09/03 05:06:40;;;;;;;6.63;3.33;;;;;;;;;;5083469;28;20088;-74
2023/09/03 05:09:08;;;;;;;5.00;3.00;;;;;;;;;;5085790;28;20769;-74
2023/09/03 05:11:37;;;;;;;7.03;3.53;;;;;;;;;;5097168;28;20076;-74
2023/09/03 05:14:03;;;;;;;4.22;3.08;;;;;;;;;;5106366;28;20044;-74
2023/09/03 05:16:29;;;;;;;3.53;2.90;;;;;;;;;;5106947;28;20039;-74
2023/09/03 05:18:56;;;;;;;5.55;3.50;;;;;;;;;;5106734;28;20065;-74
2023/09/03 05:21:22;;;;;;;4.50;3.17;;;;;;;;;;5077180;28;20028;-74
2023/09/03 05:23:49;;;;;;;5.07;3.35;;;;;;;;;;5102091;28;20039;-74
2023/09/03 05:26:15;;;;;;;5.00;3.80;;;;;;;;;;5107872;28;20020;-74
2023/09/03 05:28:41;;;;;;;6.57;3.70;;;;;;;;;;5107389;28;20023;-74
2023/09/03 05:31:07;;;;;;;6.05;3.80;;;;;;;;;;5106163;28;20526;-74
2023/09/03 05:33:34;;;;;;;5.28;3.95;;;;;;;;;;5105856;28;20030;-74
2023/09/03 05:36:00;;;;;;;5.40;3.90;;;;;;;;;;5105084;28;20031;-75
2023/09/03 05:38:26;;;;;;;8.23;4.57;;;;;;;;;;5087779;28;20444;-74
2023/09/03 05:40:52;;;;;;;7.20;4.72;;;;;;;;;;5105050;28;20024;-74
2023/09/03 05:43:18;;;;;;;8.70;4.45;;;;;;;;;;5110206;28;20031;-75
2023/09/03 05:45:45;;;;;;;8.68;4.85;;;;;;;;;;5110178;28;20489;-74
2023/09/03 05:48:11;;;;;;;5.72;4.75;;;;;;;;;;5112373;28;20073;-73
2023/09/03 05:50:37;;;;;;;7.35;4.57;;;;;;;;;;5111708;28;20534;-74
2023/09/03 05:53:04;;;;;;;6.72;4.45;;;;;;;;;;5088350;28;20432;-74
2023/09/03 05:55:30;;;;;;;5.95;4.50;;;;;;;;;;5112357;27;20031;-74
2023/09/03 05:57:56;;;;;;;7.53;5.15;;;;;;;;;;5109944;27;20028;-74
2023/09/03 06:00:22;;;;;;;8.23;4.72;;;;;;;;;;5092224;28;20074;-73
2023/09/03 06:02:48;;;;;;;7.70;5.15;;;;;;;;;;5109741;28;20043;-74
2023/09/03 06:05:15;;;;;;;7.30;5.05;;;;;;;;;;5103564;28;20058;-74
2023/09/03 06:07:41;;;;;;;7.57;4.88;;;;;;;;;;5105179;28;20029;-74
2023/09/03 06:10:07;;;;;;;8.02;5.60;;;;;;;;;;5097378;28;20027;-74
2023/09/03 06:12:34;;;;;;;6.88;5.00;;;;;;;;;;5107037;28;20517;-73
2023/09/03 06:15:00;;;;;;;9.18;5.55;;;;;;;;;;5109125;28;20507;-74
2023/09/03 06:17:26;;;;;;;6.93;5.30;;;;;;;;;;5108934;28;20024;-74
2023/09/03 06:19:52;;;;;;;8.15;5.20;;;;;;;;;;5111003;28;20365;-73
2023/09/03 06:22:19;;;;;;;6.13;4.60;;;;;;;;;;5098430;28;20035;-73
2023/09/03 06:24:45;;;;;;;7.32;4.45;;;;;;;;;;5096182;27;20570;-73
2023/09/03 06:27:11;;;;;;;7.45;4.70;;;;;;;;;;5106397;28;20057;-74
2023/09/03 06:29:37;;;;;;;5.60;4.30;;;;;;;;;;5106853;28;20032;-73
2023/09/03 06:32:04;;;;;;;6.75;4.60;;;;;;;;;;5107894;28;20031;-73
2023/09/03 06:34:32;;;;;;;8.55;5.03;;;;;;;;;;5107439;28;20028;-74
2023/09/03 06:36:58;;;;;;;8.23;5.22;;;;;;;;;;5108141;28;20023;-74
2023/09/03 06:39:26;;;;;;;13.93;5.80;;;;;;;;;;5101644;28;20024;-74
2023/09/03 06:41:52;;;;;;;9.10;5.50;;;;;;;;;;5107260;28;20357;-74
2023/09/03 06:44:23;;;;;;;16.92;5.97;;;;;;;;;;5109810;28;20125;-74
2023/09/03 06:46:49;;;;;;;10.35;5.28;;;;;;;;;;5110411;28;20020;-74
2023/09/03 06:49:15;;;;;;;8.18;5.75;;;;;;;;;;5112982;28;20043;-74
2023/09/03 06:51:41;;;;;;;18.60;7.07;;;;;;;;;;5109086;28;20137;-74
2023/09/03 06:54:07;;;;;;;10.82;5.78;;;;;;;;;;5108565;28;20110;-74
2023/09/03 06:56:34;;;;;;;11.82;6.32;;;;;;;;;;5095993;28;20023;-74
2023/09/03 06:59:00;;;;;;;19.05;6.13;;;;;;;;;;5099243;28;20415;-74
2023/09/03 07:01:26;;;;;;;12.55;5.15;;;;;;;;;;5110397;28;20039;-74
2023/09/03 07:03:52;;;;;;;9.23;5.03;;;;;;;;;;5109032;28;20121;-74
2023/09/03 07:06:18;;;;;;;9.43;6.45;;;;;;;;;;5102660;28;20027;-74
2023/09/03 07:08:45;;;;;;;6.60;4.75;;;;;;;;;;5101672;28;20051;-74
2023/09/03 07:11:11;;;;;;;7.25;4.65;;;;;;;;;;5105744;28;20081;-75
2023/09/03 07:13:37;;;;;;;5.70;4.38;;;;;;;;;;5088576;28;20020;-75
2023/09/03 07:16:04;;;;;;;7.80;4.68;;;;;;;;;;5099606;28;20044;-75
2023/09/03 07:18:30;;;;;;;7.38;4.30;;;;;;;;;;5102613;28;20024;-75
2023/09/03 07:21:04;;;;;;;7.00;4.15;;;;;;;;;;5087272;28;20027;-75
2023/09/03 07:23:30;;;;;;;8.80;4.70;;;;;;;;;;5102458;28;20438;-75
2023/09/03 07:26:00;;;;;;;6.60;4.18;;;;;;;;;;5103202;28;20036;-75
2023/09/03 07:28:27;;;;;;;6.50;4.07;;;;;;;;;;5104614;28;20703;-75
2023/09/03 07:30:53;;;;;;;5.10;3.65;;;;;;;;;;5105264;28;20049;-75
2023/09/03 07:33:19;;;;;;;7.05;4.55;;;;;;;;;;5101572;28;20032;-75
2023/09/03 07:35:45;;;;;;;6.53;4.43;;;;;;;;;;5105323;28;20039;-75
2023/09/03 07:38:11;;;;;;;5.40;4.20;;;;;;;;;;5106144;28;20027;-75
2023/09/03 07:40:40;;;;;;;5.38;4.00;;;;;;;;;;5098487;28;20031;-75
2023/09/03 07:43:07;;;;;;;4.88;3.70;;;;;;;;;;5100847;28;20061;-75
2023/09/03 07:45:33;;;;;;;9.55;4.10;;;;;;;;;;5104695;28;20046;-75
2023/09/03 07:47:59;;;;;;;5.68;3.72;;;;;;;;;;5100909;28;20440;-75
2023/09/03 07:50:28;;;;;;;4.63;3.55;;;;;;;;;;5103692;28;20952;-76
2023/09/03 07:52:54;;;;;;;5.57;3.38;;;;;;;;;;5091435;28;20483;-75
2023/09/03 07:55:20;;;;;;;4.80;3.33;;;;;;;;;;5107485;28;20027;-75
2023/09/03 07:57:46;;;;;;;5.07;3.53;;;;;;;;;;5106103;28;20053;-75
2023/09/03 08:00:13;;;;;;;5.75;3.15;;;;;;;;;;5107192;28;20631;-76
2023/09/03 08:02:40;;;;;;;5.72;3.40;;;;;;;;;;5105641;28;20061;-76
2023/09/03 08:05:06;;;;;;;6.25;3.47;;;;;;;;;;5102506;28;20035;-75
2023/09/03 08:07:34;;;;;;;5.72;2.97;;;;;;;;;;5107280;28;20581;-76
2023/09/03 08:10:01;;;;;;;5.72;3.33;;;;;;;;;;5101099;28;20028;-76
2023/09/03 08:12:27;;;;;;;4.78;3.22;;;;;;;;;;5099102;28;20023;-74
2023/09/03 08:14:53;;;;;;;4.70;2.90;;;;;;;;;;5096533;28;20507;-73
2023/09/03 08:17:20;;;;;;;7.78;3.30;;;;;;;;;;5105915;28;20047;-75
2023/09/03 08:19:47;;;;;;;3.70;2.85;;;;;;;;;;5103947;28;20390;-74
2023/09/03 08:22:13;;;;;;;5.18;2.97;;;;;;;;;;5101908;28;20497;-74
2023/09/03 08:24:39;;;;;;;3.15;2.47;;;;;;;;;;5102415;28;20123;-75
2023/09/03 08:27:06;;;;;;;4.82;3.13;;;;;;;;;;5085660;28;20035;-82
2023/09/03 08:29:32;;;;;;;4.50;3.33;;;;;;;;;;5102303;28;20031;-71
2023/09/03 08:31:58;;;;;;;3.65;2.55;;;;;;;;;;5103374;28;20030;-74
2023/09/03 08:34:24;;;;;;;4.03;2.80;;;;;;;;;;5105872;28;20020;-74
2023/09/03 08:36:50;;;;;;;3.60;2.60;;;;;;;;;;5099183;28;20028;-74
2023/09/03 08:39:16;;;;;;;3.70;2.70;;;;;;;;;;5105482;28;20519;-74
2023/09/03 08:41:43;;;;;;;3.35;2.60;;;;;;;;;;5088654;28;20659;-74
2023/09/03 08:44:16;;;;;;;3.35;2.83;;;;;;;;;;5103815;28;20103;-74
2023/09/03 08:46:42;;;;;;;5.38;2.78;;;;;;;;;;5095554;28;20615;-75
2023/09/03 08:49:10;;;;;;;6.18;3.15;;;;;;;;;;5102004;28;20019;-73
2023/09/03 08:51:36;;;;;;;3.30;2.80;;;;;;;;;;5082813;28;20047;-74
2023/09/03 08:54:03;;;;;;;4.18;3.08;;;;;;;;;;5105368;28;20026;-74
2023/09/03 08:56:29;;;;;;;4.15;2.80;;;;;;;;;;5091961;28;20334;-74
2023/09/03 08:58:55;;;;;;;3.70;2.97;;;;;;;;;;5108672;28;20031;-75
2023/09/03 09:01:22;;;;;;;3.13;2.60;;;;;;;;;;5089459;28;20736;-74
2023/09/03 09:03:51;;;;;;;4.50;2.90;;;;;;;;;;5102744;28;20062;-76
2023/09/03 09:06:20;;;;;;;4.63;3.20;;;;;;;;;;5108108;28;20121;-74
2023/09/03 09:08:47;;;;;;;4.25;2.95;;;;;;;;;;5083911;28;20536;-74
2023/09/03 09:11:17;;;;;;;6.68;3.00;;;;;;;;;;5107383;28;20093;-74
2023/09/03 09:13:48;;;;;;;4.50;2.70;;;;;;;;;;5107715;28;20062;-75
2023/09/03 09:16:14;;;;;;;5.45;2.97;;;;;;;;;;5097497;28;20506;-75
2023/09/03 09:18:42;;;;;;;5.88;3.00;;;;;;;;;;5109728;28;20110;-74
2023/09/03 09:21:10;;;;;;;5.15;3.13;;;;;;;;;;5102299;28;20492;-74
2023/09/03 09:23:36;;;;;;;3.78;2.90;;;;;;;;;;5101426;28;20039;-74
2023/09/03 09:26:15;;;;;;;4.13;2.92;;;;;;;;;;5109474;28;20482;-74
2023/09/03 09:28:56;;;;;;;5.32;2.90;;;;;;;;;;5094882;28;20161;-74
2023/09/03 09:31:29;;;;;;;4.00;3.00;;;;;;;;;;5107701;28;20395;-75
2023/09/03 09:33:55;;;;;;;3.92;3.53;;;;;;;;;;5103906;28;20035;-75
2023/09/03 09:36:21;;;;;;;5.65;3.10;;;;;;;;;;5097986;28;20019;-75
2023/09/03 09:38:50;;;;;;;6.38;3.38;;;;;;;;;;5099859;28;20074;-76
2023/09/03 09:41:24;;;;;;;5.10;3.33;;;;;;;;;;5106646;28;20019;-74
2023/09/03 09:43:51;;;;;;;6.07;3.40;;;;;;;;;;5086284;28;20038;-75
2023/09/03 09:46:26;;;;;;;7.78;4.30;;;;;;;;;;5077898;28;20055;-76
2023/09/03 09:48:56;;;;;;;5.93;4.97;;;;;;;;;;5104596;28;20837;-75
2023/09/03 09:51:22;;;;;;;9.18;5.40;;;;;;;;;;5110242;28;20644;-75
2023/09/03 09:54:02;;;;;;;6.72;4.32;;;;;;;;;;5103888;28;20409;-76
2023/09/03 09:56:34;;;;;;;4.63;3.38;;;;;;;;;;5087398;28;20031;-75
2023/09/03 09:59:01;;;;;;;3.85;3.22;;;;;;;;;;5109294;28;20031;-74
2023/09/03 10:01:41;;;;;;;8.52;4.35;;;;;;;;;;5104894;28;20731;-75
2023/09/03 10:04:07;;;;;;;5.28;3.30;;;;;;;;;;5087308;28;20114;-74
2023/09/03 10:06:34;;;;;;;6.78;3.72;;;;;;;;;;5086753;28;20032;-75
2023/09/03 10:09:00;;;;;;;5.25;3.63;;;;;;;;;;5081189;28;20024;-75
2023/09/03 10:11:26;;;;;;;5.05;3.70;;;;;;;;;;5107790;28;20032;-74
2023/09/03 10:13:52;;;;;;;5.22;4.18;;;;;;;;;;5107692;28;20493;-75
2023/09/03 10:16:19;;;;;;;5.00;3.38;;;;;;;;;;5091952;28;20216;-75
2023/09/03 10:18:49;;;;;;;5.10;3.50;;;;;;;;;;5105904;28;20032;-75
2023/09/03 10:21:21;;;;;;;6.65;3.42;;;;;;;;;;5100750;28;20016;-75
2023/09/03 10:23:51;;;;;;;4.05;3.47;;;;;;;;;;5097421;28;20105;-76
2023/09/03 10:26:21;;;;;;;4.28;3.30;;;;;;;;;;5085161;28;20039;-75
2023/09/03 10:28:48;;;;;;;5.55;3.08;;;;;;;;;;5105807;28;20031;-76
2023/09/03 10:31:15;;;;;;;4.68;3.40;;;;;;;;;;5104910;28;20134;-76
2023/09/03 10:33:42;;;;;;;6.32;3.05;;;;;;;;;;5108548;28;20080;-75
2023/09/03 10:36:18;;;;;;;5.13;3.80;;;;;;;;;;5111301;28;20020;-75
2023/09/03 10:38:45;;;;;;;4.85;3.42;;;;;;;;;;5107259;28;20066;-75
2023/09/03 10:41:20;;;;;;;3.83;3.42;;;;;;;;;;5088121;28;20542;-76
2023/09/03 10:43:47;;;;;;;4.28;3.25;;;;;;;;;;5109920;28;20030;-75
2023/09/03 10:46:13;;;;;;;4.80;3.35;;;;;;;;;;5104561;28;20031;-76
2023/09/03 10:48:40;;;;;;;7.43;3.13;;;;;;;;;;5089914;28;20754;-75
2023/09/03 10:51:06;;;;;;;9.35;4.57;;;;;;;;;;5111827;28;20320;-75
2023/09/03 10:53:36;;;;;;;4.85;3.55;;;;;;;;;;5107609;28;20570;-76
2023/09/03 10:56:22;;;;;;;4.78;3.75;;;;;;;;;;5108436;28;20050;-75
2023/09/03 10:58:55;;;;;;;4.00;3.20;;;;;;;;;;5107836;28;20053;-75
2023/09/03 11:01:24;;;;;;;5.10;3.42;;;;;;;;;;5111164;28;20035;-75
2023/09/03 11:03:52;;;;;;;5.88;3.35;;;;;;;;;;5105378;28;20031;-75
2023/09/03 11:06:28;;;;;;;5.10;3.03;;;;;;;;;;5102788;28;20028;-75
2023/09/03 11:09:04;;;;;;;3.80;2.58;;;;;;;;;;5111468;28;20031;-75
2023/09/03 11:11:41;;;;;;;3.85;2.60;;;;;;;;;;5113037;28;20028;-75
2023/09/03 11:14:07;;;;;;;5.85;3.58;;;;;;;;;;5105539;28;20019;-76
2023/09/03 11:16:34;;;;;;;3.72;2.92;;;;;;;;;;5108159;28;20061;-75
2023/09/03 11:19:03;;;;;;;4.10;2.65;;;;;;;;;;5087956;28;20036;-75
2023/09/03 11:21:29;;;;;;;4.13;2.33;;;;;;;;;;5089674;28;20036;-75
2023/09/03 11:24:01;;;;;;;4.80;2.60;;;;;;;;;;5099741;28;20259;-76
2023/09/03 11:26:28;;;;;;;3.55;2.42;;;;;;;;;;5105642;28;20097;-76
2023/09/03 11:28:54;;;;;;;3.00;2.40;;;;;;;;;;5113126;28;20051;-76
2023/09/03 11:31:20;;;;;;;3.05;2.50;;;;;;;;;;5108152;28;20053;-75
2023/09/03 11:33:47;;;;;;;4.60;2.47;;;;;;;;;;5103534;28;20032;-76
2023/09/03 11:36:13;;;;;;;3.55;2.65;;;;;;;;;;5087918;28;20023;-76
2023/09/03 11:38:39;;;;;;;5.93;2.30;;;;;;;;;;5102384;28;20028;-75
2023/09/03 11:41:06;;;;;;;3.17;1.95;;;;;;;;;;5108040;28;20369;-77
2023/09/03 11:43:35;;;;;;;2.80;2.38;;;;;;;;;;5108673;28;20072;-76
2023/09/03 11:46:01;;;;;;;5.88;2.40;;;;;;;;;;5106204;28;20489;-75
2023/09/03 11:48:32;;;;;;;2.80;2.50;;;;;;;;;;5097322;28;20027;-76
2023/09/03 11:50:58;;;;;;;5.30;2.50;;;;;;;;;;5111397;28;20107;-75
2023/09/03 11:53:24;;;;;;;3.63;2.72;;;;;;;;;;5090203;28;20039;-76
2023/09/03 11:55:52;;;;;;;4.68;2.92;;;;;;;;;;5092682;28;20032;-76
2023/09/03 11:58:21;;;;;;;2.92;2.63;;;;;;;;;;5090088;28;20099;-75
2023/09/03 12:00:47;;;;;;;3.00;2.70;;;;;;;;;;5104155;28;20027;-75
2023/09/03 12:03:14;;;;;;;3.05;2.67;;;;;;;;;;5094061;28;20039;-76
2023/09/03 12:05:40;;;;;;;5.20;3.70;;;;;;;;;;5106977;28;20023;-75
2023/09/03 12:08:06;;;;;;;5.18;2.88;;;;;;;;;;5110547;28;20042;-76
2023/09/03 12:10:33;;;;;;;3.83;2.90;;;;;;;;;;5104689;28;20399;-76
2023/09/03 12:13:00;;;;;;;3.45;2.88;;;;;;;;;;5092518;28;20080;-76
2023/09/03 12:15:29;;;;;;;3.22;2.65;;;;;;;;;;5109794;28;20708;-76
2023/09/03 12:18:05;;;;;;;3.50;2.80;;;;;;;;;;5109099;28;20102;-75
2023/09/03 12:20:31;;;;;;;6.63;3.22;;;;;;;;;;5107112;28;20027;-76
2023/09/03 12:23:06;;;;;;;3.75;2.80;;;;;;;;;;5109394;28;20039;-75
2023/09/03 12:25:35;;;;;;;3.28;2.95;;;;;;;;;;5105656;28;20032;-76
2023/09/03 12:28:04;;;;;;;4.30;2.83;;;;;;;;;;5108203;28;20024;-76
2023/09/03 12:30:50;;;;;;;4.45;2.85;;;;;;;;;;5090678;28;20035;-76
2023/09/03 12:33:16;;;;;;;3.67;2.80;;;;;;;;;;5072995;28;20039;-76
2023/09/03 12:35:42;;;;;;;3.55;2.97;;;;;;;;;;5088020;28;20081;-76
2023/09/03 12:38:09;;;;;;;3.53;2.88;;;;;;;;;;5105801;28;20125;-76
2023/09/03 12:40:35;;;;;;;3.22;2.70;;;;;;;;;;5078232;28;20035;-76
2023/09/03 12:43:01;;;;;;;3.10;2.80;;;;;;;;;;5096148;28;20106;-76
2023/09/03 12:45:27;;;;;;;4.00;2.75;;;;;;;;;;5088678;28;20023;-75
2023/09/03 12:47:53;;;;;;;4.55;2.60;;;;;;;;;;5093959;28;20020;-76
2023/09/03 12:50:20;;;;;;;4.80;2.70;;;;;;;;;;5081076;28;20043;-76
2023/09/03 12:52:46;;;;;;;3.85;2.70;;;;;;;;;;5108256;28;20032;-75
2023/09/03 12:55:12;;;;;;;3.72;2.80;;;;;;;;;;5105222;28;20023;-76
2023/09/03 12:57:38;;;;;;;2.80;2.53;;;;;;;;;;5087350;28;20051;-76
2023/09/03 13:00:07;;;;;;;4.15;2.70;;;;;;;;;;5102707;28;20095;-76
2023/09/03 13:02:34;;;;;;;2.78;2.40;;;;;;;;;;5102214;28;20031;-76
2023/09/03 13:05:00;;;;;;;7.03;2.58;;;;;;;;;;5106700;28;20027;-75
2023/09/03 13:07:26;;;;;;;2.47;2.28;;;;;;;;;;5080481;28;20024;-72
2023/09/03 13:09:52;;;;;;;2.50;2.22;;;;;;;;;;5084156;28;20028;-74
2023/09/03 13:12:18;;;;;;;3.40;2.30;;;;;;;;;;5103354;28;20501;-73
2023/09/03 13:14:44;;;;;;;3.50;2.30;;;;;;;;;;5106393;28;20504;-74
2023/09/03 13:17:11;;;;;;;2.63;2.10;;;;;;;;;;5101567;28;21789;-74
2023/09/03 13:19:37;;;;;;;3.38;2.13;;;;;;;;;;5107590;28;20039;-73
2023/09/03 13:22:03;;;;;;;2.20;2.00;;;;;;;;;;5106500;28;20563;-73
2023/09/03 13:24:29;;;;;;;2.90;2.17;;;;;;;;;;5098919;28;20391;-73
2023/09/03 13:26:56;;;;;;;2.88;2.15;;;;;;;;;;5104522;28;20144;-74
2023/09/03 13:29:22;;;;;;;2.78;2.30;;;;;;;;;;5102975;28;20703;-73
2023/09/03 13:31:48;;;;;;;2.92;2.15;;;;;;;;;;5096728;28;20372;-74
2023/09/03 13:34:17;;;;;;;2.90;2.13;;;;;;;;;;5106352;28;20387;-73
2023/09/03 13:36:43;;;;;;;2.95;2.38;;;;;;;;;;5106677;28;20512;-73
2023/09/03 13:39:10;;;;;;;2.58;2.20;;;;;;;;;;5105496;28;20794;-73
2023/09/03 13:41:36;;;;;;;3.72;2.70;;;;;;;;;;5106558;28;20024;-73
2023/09/03 13:44:02;;;;;;;3.45;2.38;;;;;;;;;;5099727;28;20487;-74
2023/09/03 13:46:29;;;;;;;2.47;1.98;;;;;;;;;;5103463;28;20047;-73
2023/09/03 13:48:55;;;;;;;2.38;2.17;;;;;;;;;;5104458;28;20479;-73
2023/09/03 13:51:21;;;;;;;2.40;2.20;;;;;;;;;;5090371;28;20395;-73
2023/09/03 13:53:51;;;;;;;3.08;2.10;;;;;;;;;;5096854;28;20050;-72
2023/09/03 13:56:18;;;;;;;2.88;2.00;;;;;;;;;;5107919;28;20015;-73
2023/09/03 13:58:46;;;;;;;2.10;1.90;;;;;;;;;;5103242;28;20436;-73
2023/09/03 14:01:13;;;;;;;2.50;2.30;;;;;;;;;;5107864;28;20061;-74
2023/09/03 14:03:39;;;;;;;3.20;2.00;;;;;;;;;;5108630;28;20027;-73
2023/09/03 14:06:06;;;;;;;3.53;2.25;;;;;;;;;;5108484;28;20482;-73
2023/09/03 14:08:33;;;;;;;2.78;2.10;;;;;;;;;;5107350;28;20587;-73
2023/09/03 14:10:59;;;;;;;2.25;2.08;;;;;;;;;;5112824;28;20028;-73
2023/09/03 14:13:27;;;;;;;3.30;2.80;;;;;;;;;;5108139;28;20023;-73
2023/09/03 14:15:53;;;;;;;3.95;2.17;;;;;;;;;;5109287;28;20429;-73
2023/09/03 14:18:19;;;;;;;4.85;2.50;;;;;;;;;;5109904;28;20020;-73
2023/09/03 14:20:50;;;;;;;4.68;2.20;;;;;;;;;;5109427;28;20031;-73
2023/09/03 14:23:16;;;;;;;2.38;1.90;;;;;;;;;;5098966;28;20020;-73
2023/09/03 14:25:43;;;;;;;5.07;2.00;;;;;;;;;;5106543;28;20074;-75
2023/09/03 14:28:09;;;;;;;3.10;2.08;;;;;;;;;;5107253;28;20243;-73
2023/09/03 14:30:36;;;;;;;2.20;2.00;;;;;;;;;;5102773;28;20047;-73
2023/09/03 14:33:02;;;;;;;2.40;2.20;;;;;;;;;;5099112;28;20119;-73
2023/09/03 14:35:28;;;;;;;3.33;1.90;;;;;;;;;;5110861;28;20030;-74
2023/09/03 14:37:55;;;;;;;2.15;1.90;;;;;;;;;;5111269;28;20057;-74
2023/09/03 14:40:21;;;;;;;2.45;2.05;;;;;;;;;;5111153;28;20551;-76
2023/09/03 14:42:47;;;;;;;2.42;2.00;;;;;;;;;;5108119;28;20483;-74
2023/09/03 14:45:14;;;;;;;3.22;1.85;;;;;;;;;;5102995;28;20023;-74